createdAt,value
2019-01-27T00:03:03.095Z,73.10
2019-01-27T00:07:54.867Z,72.60
2019-01-27T00:12:45.792Z,72.60
2019-01-27T00:17:36.741Z,72.90
2019-01-27T00:22:27.698Z,73.40
2019-01-27T00:27:18.668Z,73.60
2019-01-27T00:32:09.570Z,73.80
2019-01-27T00:37:00.511Z,73.80
2019-01-27T00:41:51.525Z,74.50
2019-01-27T00:46:42.854Z,73.00
2019-01-27T00:51:33.751Z,72.60
2019-01-27T00:56:24.722Z,72.80
2019-01-27T01:01:16.426Z,73.40
2019-01-27T01:06:07.418Z,73.40
2019-01-27T01:10:58.369Z,73.60
2019-01-27T01:15:49.288Z,73.90
2019-01-27T01:20:40.213Z,73.90
2019-01-27T01:25:31.140Z,74.50
2019-01-27T01:30:24.903Z,73.00
2019-01-27T01:35:15.807Z,72.40
2019-01-27T01:40:07.705Z,72.50
2019-01-27T01:44:59.387Z,73.30
2019-01-27T01:49:50.407Z,73.30
2019-01-27T01:54:41.394Z,73.40
2019-01-27T01:59:33.068Z,73.80
2019-01-27T02:04:24.014Z,73.80
2019-01-27T02:09:14.927Z,74.30
2019-01-27T02:14:05.843Z,73.00
2019-01-27T02:18:56.762Z,72.40
2019-01-27T02:23:47.665Z,72.60
2019-01-27T02:28:38.591Z,73.10
2019-01-27T02:33:29.518Z,73.50
2019-01-27T02:38:20.429Z,73.70
2019-01-27T02:43:11.349Z,73.80
2019-01-27T02:48:02.253Z,74.10
2019-01-27T02:52:53.209Z,74.60
2019-01-27T02:57:45.606Z,72.60
2019-01-27T03:02:36.505Z,72.60
2019-01-27T03:07:28.175Z,73.10
2019-01-27T03:12:19.140Z,73.10
2019-01-27T03:17:10.805Z,73.70
2019-01-27T03:22:01.719Z,73.70
2019-01-27T03:26:53.374Z,73.90
2019-01-27T03:31:44.355Z,73.90
2019-01-27T03:36:35.254Z,74.60
2019-01-27T03:41:26.162Z,73.10
2019-01-27T03:46:17.077Z,72.60
2019-01-27T03:51:07.987Z,72.40
2019-01-27T03:55:59.820Z,72.80
2019-01-27T04:00:50.775Z,73.20
2019-01-27T04:05:41.686Z,73.50
2019-01-27T04:10:32.605Z,73.80
2019-01-27T04:15:23.538Z,73.90
2019-01-27T04:20:15.195Z,72.90
2019-01-27T04:25:06.900Z,72.20
2019-01-27T04:29:57.838Z,72.20
2019-01-27T04:34:48.857Z,72.30
2019-01-27T04:39:41.254Z,73.80
2019-01-27T04:44:32.162Z,73.10
2019-01-27T04:49:23.087Z,73.50
2019-01-27T04:54:14.018Z,73.60
2019-01-27T04:59:04.980Z,73.80
2019-01-27T05:03:56.658Z,72.70
2019-01-27T05:08:47.571Z,72.70
2019-01-27T05:13:38.555Z,71.90
2019-01-27T05:18:29.466Z,72.00
2019-01-27T05:23:20.370Z,72.40
2019-01-27T05:28:11.281Z,72.70
2019-01-27T05:33:02.199Z,73.00
2019-01-27T05:37:53.147Z,73.20
2019-01-27T05:42:44.059Z,73.30
2019-01-27T05:47:35.086Z,74.10
2019-01-27T05:52:26.780Z,73.00
2019-01-27T05:57:17.715Z,71.90
2019-01-27T06:02:08.655Z,72.00
2019-01-27T06:06:59.577Z,72.40
2019-01-27T06:11:50.509Z,72.70
2019-01-27T06:16:41.414Z,72.90
2019-01-27T06:21:32.332Z,73.70
2019-01-27T06:26:23.283Z,73.10
2019-01-27T06:31:14.934Z,73.00
2019-01-27T06:36:06.068Z,73.00
2019-01-27T06:40:56.989Z,71.80
2019-01-27T06:45:47.963Z,71.70
2019-01-27T06:50:39.605Z,72.30
2019-01-27T06:55:31.257Z,72.70
2019-01-27T07:00:25.654Z,73.10
2019-01-27T07:05:17.310Z,73.30
2019-01-27T07:10:08.209Z,73.20
2019-01-27T07:15:03.749Z,73.20
2019-01-27T07:19:55.771Z,73.20
2019-01-27T07:24:48.429Z,71.70
2019-01-27T07:29:40.077Z,72.00
2019-01-27T07:39:55.394Z,72.30
2019-01-27T07:44:47.111Z,73.10
2019-01-27T07:49:49.854Z,73.10
2019-01-27T07:54:41.671Z,73.30
2019-01-27T07:59:34.344Z,73.40
2019-01-27T08:04:26.094Z,73.40
2019-01-27T08:09:17.054Z,72.10
2019-01-27T08:14:07.970Z,71.70
2019-01-27T08:18:59.767Z,72.20
2019-01-27T08:23:50.690Z,72.50
2019-01-27T08:28:43.547Z,73.00
2019-01-27T08:33:35.475Z,73.40
2019-01-27T08:38:26.459Z,73.80
2019-01-27T08:43:20.384Z,73.90
2019-01-27T08:48:11.312Z,74.50
2019-01-27T08:53:02.224Z,72.90
2019-01-27T08:57:53.146Z,72.30
2019-01-27T09:02:45.953Z,72.80
2019-01-27T09:07:43.169Z,73.30
2019-01-27T09:12:34.090Z,73.80
2019-01-27T09:17:28.982Z,74.00
2019-01-27T09:22:21.601Z,74.50
2019-01-27T09:27:12.520Z,74.40
2019-01-27T09:32:06.339Z,75.10
2019-01-27T09:37:03.363Z,73.70
2019-01-27T09:41:57.201Z,72.90
2019-01-27T09:52:10.570Z,73.50
2019-01-27T09:57:03.133Z,74.30
2019-01-27T10:02:01.317Z,74.40
2019-01-27T10:07:03.256Z,75.00
2019-01-27T10:11:55.170Z,74.50
2019-01-27T10:16:52.217Z,74.80
2019-01-27T10:21:44.767Z,73.10
2019-01-27T10:26:40.377Z,73.30
2019-01-27T10:31:32.229Z,73.40
2019-01-27T10:36:23.944Z,74.10
2019-01-27T10:41:15.738Z,74.10
2019-01-27T10:46:22.537Z,74.40
2019-01-27T10:51:15.372Z,74.60
2019-01-27T10:58:02.099Z,76.30
2019-01-27T11:08:11.617Z,73.40
2019-01-27T11:13:02.814Z,73.90
2019-01-27T11:17:55.927Z,74.20
2019-01-27T11:22:52.050Z,74.70
2019-01-27T11:27:44.253Z,75.20
2019-01-27T11:37:53.022Z,74.30
2019-01-27T11:42:48.684Z,74.60
2019-01-27T11:47:51.631Z,74.60
2019-01-27T11:52:42.563Z,74.90
2019-01-27T11:57:33.587Z,75.20
2019-01-27T12:02:24.599Z,75.40
2019-01-27T12:07:15.621Z,76.00
2019-01-27T12:12:06.649Z,75.10
2019-01-27T12:16:57.573Z,74.10
2019-01-27T12:21:48.628Z,74.20
2019-01-27T12:26:39.621Z,74.40
2019-01-27T12:31:31.344Z,75.90
2019-01-27T12:36:22.379Z,75.30
2019-01-27T12:41:14.177Z,76.40
2019-01-27T12:46:05.137Z,76.30
2019-01-27T12:50:56.855Z,74.40
2019-01-27T12:55:47.758Z,74.40
2019-01-27T13:00:38.693Z,74.20
2019-01-27T13:05:29.706Z,74.30
2019-01-27T13:10:20.699Z,74.70
2019-01-27T13:15:11.651Z,74.70
2019-01-27T13:20:02.565Z,75.00
2019-01-27T13:24:53.503Z,75.80
2019-01-27T13:29:44.531Z,74.60
2019-01-27T13:34:36.206Z,73.80
2019-01-27T13:39:27.117Z,73.80
2019-01-27T13:44:19.227Z,74.20
2019-01-27T13:49:08.987Z,74.50
2019-01-27T13:53:59.899Z,74.80
2019-01-27T13:58:50.900Z,75.00
2019-01-27T14:03:41.965Z,75.30
2019-01-27T14:08:32.879Z,74.10
2019-01-27T14:13:23.807Z,73.50
2019-01-27T14:18:15.490Z,74.00
2019-01-27T14:23:06.426Z,74.10
2019-01-27T14:27:57.347Z,74.30
2019-01-27T14:32:48.320Z,74.50
2019-01-27T14:37:40.027Z,74.80
2019-01-27T14:42:30.949Z,74.80
2019-01-27T14:47:23.410Z,73.60
2019-01-27T14:52:14.341Z,73.20
2019-01-27T14:57:05.258Z,73.50
2019-01-27T15:01:56.935Z,74.00
2019-01-27T15:06:47.858Z,74.10
2019-01-27T15:11:38.784Z,74.20
2019-01-27T15:16:29.690Z,74.50
2019-01-27T15:21:20.601Z,74.10
2019-01-27T15:26:11.580Z,72.80
2019-01-27T15:31:02.489Z,72.70
2019-01-27T15:35:53.397Z,73.00
2019-01-27T15:40:44.307Z,73.20
2019-01-27T15:45:35.222Z,73.50
2019-01-27T15:50:26.128Z,73.80
2019-01-27T15:55:17.037Z,74.30
2019-01-27T16:00:23.798Z,73.70
2019-01-27T16:05:16.310Z,72.80
2019-01-27T16:10:07.223Z,72.60
2019-01-27T16:14:58.144Z,73.00
2019-01-27T16:19:49.067Z,73.40
2019-01-27T16:24:39.974Z,73.60
2019-01-27T16:29:34.692Z,73.80
2019-01-27T16:34:25.616Z,74.40
2019-01-27T16:39:16.534Z,73.60
2019-01-27T16:44:07.450Z,72.60
2019-01-27T16:48:58.369Z,72.60
2019-01-27T16:53:49.284Z,73.10
2019-01-27T16:58:40.205Z,73.50
2019-01-27T17:03:31.144Z,73.70
2019-01-27T17:08:22.062Z,73.80
2019-01-27T17:13:12.998Z,74.40
2019-01-27T17:18:04.645Z,72.50
2019-01-27T17:22:56.319Z,72.50
2019-01-27T17:27:47.226Z,72.50
2019-01-27T17:32:38.134Z,72.90
2019-01-27T17:37:29.064Z,73.30
2019-01-27T17:42:19.979Z,73.70
2019-01-27T17:47:10.898Z,74.00
2019-01-27T17:52:01.828Z,74.30
2019-01-27T17:56:52.742Z,74.20
2019-01-27T18:01:49.907Z,73.00
2019-01-27T18:06:41.754Z,72.90
2019-01-27T18:11:33.584Z,73.10
2019-01-27T18:16:24.567Z,73.40
2019-01-27T18:21:16.299Z,74.10
2019-01-27T18:26:07.324Z,74.10
2019-01-27T18:30:58.236Z,74.20
2019-01-27T18:35:49.180Z,74.50
2019-01-27T18:40:40.963Z,72.80
2019-01-27T18:45:31.858Z,72.60
2019-01-27T18:50:22.786Z,73.00
2019-01-27T18:55:13.687Z,73.40
2019-01-27T19:00:04.595Z,73.80
2019-01-27T19:05:00.586Z,74.20
2019-01-27T19:09:50.316Z,74.20
2019-01-27T19:14:44.377Z,74.60
2019-01-27T19:19:38.321Z,73.40
2019-01-27T19:24:35.552Z,72.80
2019-01-27T19:29:26.472Z,73.00
2019-01-27T19:34:23.583Z,73.30
2019-01-27T19:39:20.826Z,73.80
2019-01-27T19:44:13.424Z,74.30
2019-01-27T19:54:25.221Z,74.80
2019-01-27T19:59:27.688Z,72.80
2019-01-27T20:04:21.574Z,72.80
2019-01-27T20:09:17.170Z,74.00
2019-01-27T20:14:08.959Z,73.50
2019-01-27T20:19:00.685Z,74.20
2019-01-27T20:23:53.227Z,74.20
2019-01-27T20:28:49.191Z,74.40
2019-01-27T20:33:41.773Z,74.00
2019-01-27T20:38:39.171Z,74.00
2019-01-27T20:43:32.995Z,73.00
2019-01-27T20:48:27.015Z,73.00
2019-01-27T20:53:29.848Z,73.30
2019-01-27T20:58:25.825Z,73.80
2019-01-27T21:03:18.472Z,74.40
2019-01-27T21:08:09.486Z,74.60
2019-01-27T21:13:02.257Z,75.00
2019-01-27T21:17:53.332Z,74.50
2019-01-27T21:22:44.365Z,73.40
2019-01-27T21:27:35.316Z,73.20
2019-01-27T21:32:26.349Z,73.70
2019-01-27T21:37:17.369Z,74.00
2019-01-27T21:42:08.390Z,75.10
2019-01-27T21:46:59.418Z,74.50
2019-01-27T21:51:51.134Z,75.80
2019-01-27T21:56:42.049Z,75.20
2019-01-27T22:01:32.973Z,73.70
2019-01-27T22:06:23.999Z,73.30
2019-01-27T22:11:15.016Z,73.50
2019-01-27T22:16:06.033Z,73.90
2019-01-27T22:20:57.199Z,74.20
2019-01-27T22:25:48.899Z,74.70
2019-01-27T22:30:39.938Z,74.70
2019-01-27T22:35:31.607Z,74.00
2019-01-27T22:40:22.534Z,74.00
2019-01-27T22:45:13.498Z,73.10
2019-01-27T22:50:04.428Z,73.40
2019-01-27T22:54:55.447Z,73.80
2019-01-27T22:59:46.457Z,74.70
2019-01-27T23:04:37.476Z,74.70
2019-01-27T23:09:28.395Z,74.90
2019-01-27T23:14:19.311Z,75.30
2019-01-27T23:19:10.250Z,75.10
2019-01-27T23:24:01.253Z,73.80
2019-01-27T23:28:52.174Z,73.70
2019-01-27T23:33:43.595Z,73.90
2019-01-27T23:38:34.530Z,74.30
2019-01-27T23:43:25.546Z,74.50
2019-01-27T23:48:17.283Z,75.10
2019-01-27T23:53:08.213Z,75.10
2019-01-27T23:57:59.939Z,74.00
